Time;durP1;ratioP1;P1;durP2;ratioP2;P2;SDS_P1;SDS_P2;PMS_P1;PMS_P2;Temp;Humidity;BMP_temperature;BMP_pressure;BME280_temperature;BME280_humidity;BME280_pressure;Samples;Min_cycle;Max_cycle;Signal;HPM_P1;HPM_P2
2021/01/10 00:01:16;;;;;;;9.65;5.43;;;-0.30;99.90;;;;;;5071883;28;20469;-77
2021/01/10 00:03:41;;;;;;;9.88;5.13;;;-0.20;99.90;;;;;;5065845;28;20395;-79
2021/01/10 00:06:10;;;;;;;12.02;4.78;;;-0.10;99.90;;;;;;5058188;28;20052;-78
2021/01/10 00:08:36;;;;;;;8.85;5.28;;;-0.20;99.90;;;;;;5054886;28;20120;-78
2021/01/10 00:11:02;;;;;;;8.88;5.03;;;-0.30;99.90;;;;;;5072012;28;20446;-78
2021/01/10 00:13:27;;;;;;;9.85;5.18;;;-0.30;99.90;;;;;;5071553;28;20406;-77
2021/01/10 00:15:53;;;;;;;10.45;5.30;;;-0.30;99.90;;;;;;5054510;28;20123;-78
2021/01/10 00:18:19;;;;;;;8.90;4.75;;;-0.30;99.90;;;;;;5070820;28;20033;-77
2021/01/10 00:21:04;;;;;;;8.55;4.88;;;-0.30;99.90;;;;;;5070710;28;20664;-78
2021/01/10 00:23:32;;;;;;;10.18;5.30;;;-0.30;99.90;;;;;;5055289;28;20032;-77
2021/01/10 00:25:58;;;;;;;10.60;4.95;;;-0.30;99.90;;;;;;5070022;28;20025;-78
2021/01/10 00:28:24;;;;;;;10.90;5.72;;;-0.30;99.90;;;;;;5050415;28;20111;-77
2021/01/10 00:30:49;;;;;;;10.73;4.93;;;-0.30;99.90;;;;;;5071252;28;20028;-78
2021/01/10 00:33:18;;;;;;;9.98;4.72;;;-0.30;99.90;;;;;;5071185;28;20035;-78
2021/01/10 00:35:44;;;;;;;11.38;5.60;;;-0.30;99.90;;;;;;5038698;28;20032;-78
2021/01/10 00:38:10;;;;;;;13.07;5.72;;;-0.30;99.90;;;;;;5053337;28;20591;-77
2021/01/10 00:40:35;;;;;;;11.30;5.28;;;-0.30;99.90;;;;;;5070001;28;20115;-78
2021/01/10 00:43:01;;;;;;;10.90;5.07;;;-0.30;99.90;;;;;;5070775;28;20388;-77
2021/01/10 00:45:27;;;;;;;11.30;4.75;;;-0.30;99.90;;;;;;5071961;28;20029;-77
2021/01/10 00:47:55;;;;;;;9.88;5.13;;;-0.30;99.90;;;;;;5070757;28;20074;-77
2021/01/10 00:50:40;;;;;;;7.65;4.72;;;-0.30;99.90;;;;;;5056195;28;20064;-77
2021/01/10 00:53:09;;;;;;;10.25;4.82;;;-0.30;99.90;;;;;;5038282;28;20036;-77
2021/01/10 00:55:38;;;;;;;10.07;5.25;;;-0.30;99.90;;;;;;5037867;28;20550;-77
2021/01/10 00:58:07;;;;;;;10.68;5.50;;;-0.30;99.90;;;;;;5070020;28;20542;-78
2021/01/10 01:00:32;;;;;;;10.82;5.95;;;-0.30;99.90;;;;;;5053295;28;20107;-77
2021/01/10 01:02:58;;;;;;;8.73;4.75;;;-0.20;99.90;;;;;;5071757;28;20379;-78
2021/01/10 01:05:24;;;;;;;10.63;5.43;;;-0.20;99.90;;;;;;5071881;28;20561;-77
2021/01/10 01:07:52;;;;;;;8.95;4.78;;;-0.20;99.90;;;;;;5070560;28;20056;-78
2021/01/10 01:10:23;;;;;;;8.88;4.93;;;-0.20;99.90;;;;;;5053343;28;20119;-77
2021/01/10 01:12:49;;;;;;;8.40;4.38;;;-0.20;99.90;;;;;;5071625;28;20658;-77
2021/01/10 01:15:14;;;;;;;10.73;4.88;;;-0.20;99.90;;;;;;5053402;28;20036;-77
2021/01/10 01:17:40;;;;;;;9.85;4.90;;;-0.20;99.90;;;;;;5070554;28;20495;-78
2021/01/10 01:20:06;;;;;;;9.63;4.80;;;-0.20;99.90;;;;;;5069178;28;20801;-78
2021/01/10 01:22:32;;;;;;;10.20;4.85;;;-0.20;99.90;;;;;;5053477;28;20033;-77
2021/01/10 01:24:58;;;;;;;10.10;4.60;;;-0.20;99.90;;;;;;5070111;28;20097;-78
2021/01/10 01:27:24;;;;;;;9.73;5.43;;;-0.20;99.90;;;;;;5071428;28;20131;-77
2021/01/10 01:29:50;;;;;;;9.02;4.78;;;-0.20;99.90;;;;;;5069024;28;20087;-78
2021/01/10 01:32:15;;;;;;;8.73;4.50;;;-0.20;99.90;;;;;;5071299;28;20041;-78
2021/01/10 01:34:41;;;;;;;13.15;6.60;;;-0.20;99.90;;;;;;5070020;28;20082;-78
2021/01/10 01:37:07;;;;;;;9.32;5.00;;;-0.20;99.90;;;;;;5069937;28;20135;-77
2021/01/10 01:39:33;;;;;;;10.05;4.85;;;-0.20;99.90;;;;;;5070025;28;20055;-78
2021/01/10 01:41:58;;;;;;;10.38;5.10;;;-0.20;99.90;;;;;;5069901;28;20037;-77
2021/01/10 01:44:25;;;;;;;8.82;4.38;;;-0.20;99.90;;;;;;5053339;28;20033;-78
2021/01/10 01:46:51;;;;;;;12.40;5.07;;;-0.20;99.90;;;;;;5071301;28;20025;-78
2021/01/10 01:49:17;;;;;;;9.07;4.40;;;-0.20;99.90;;;;;;5070591;28;20433;-77
2021/01/10 01:51:44;;;;;;;10.30;4.40;;;-0.20;99.90;;;;;;5052713;28;20037;-78
2021/01/10 01:54:10;;;;;;;9.18;4.63;;;-0.20;99.90;;;;;;5069724;28;20112;-78
2021/01/10 01:56:36;;;;;;;9.68;4.63;;;-0.20;99.90;;;;;;5069809;28;20461;-77
2021/01/10 01:59:07;;;;;;;8.75;4.75;;;-0.20;99.90;;;;;;5068656;28;20873;-77
2021/01/10 02:01:37;;;;;;;8.25;4.38;;;-0.20;99.90;;;;;;5079800;28;20493;-78
2021/01/10 02:04:32;;;;;;;9.65;4.88;;;-0.20;99.90;;;;;;5069639;28;20031;-77
2021/01/10 02:07:09;;;;;;;11.90;4.93;;;-0.20;99.90;;;;;;5069973;28;20041;-77
2021/01/10 02:09:43;;;;;;;8.20;4.75;;;-0.20;99.90;;;;;;5072529;28;20040;-77
2021/01/10 02:12:12;;;;;;;10.05;4.88;;;-0.20;99.90;;;;;;5074444;28;20111;-77
2021/01/10 02:14:59;;;;;;;9.45;5.03;;;-0.10;99.90;;;;;;5056814;28;20386;-78
2021/01/10 02:17:28;;;;;;;8.38;4.45;;;-0.20;99.90;;;;;;5074808;28;20055;-78
2021/01/10 02:20:07;;;;;;;8.65;4.30;;;-0.20;99.90;;;;;;5055453;28;20032;-77
2021/01/10 02:22:41;;;;;;;10.02;5.10;;;-0.20;99.90;;;;;;5073275;28;20089;-78
2021/01/10 02:25:08;;;;;;;8.15;4.72;;;-0.20;99.90;;;;;;5077280;28;20447;-77
2021/01/10 02:27:34;;;;;;;8.02;4.40;;;-0.20;99.90;;;;;;5074527;28;20513;-77
2021/01/10 02:30:00;;;;;;;11.77;5.28;;;-0.20;99.90;;;;;;5071980;28;20054;-78
2021/01/10 02:32:27;;;;;;;9.70;4.95;;;-0.30;99.90;;;;;;5056366;28;20040;-78
2021/01/10 02:34:54;;;;;;;10.80;5.45;;;-0.20;99.90;;;;;;5056641;28;20036;-78
2021/01/10 02:37:48;;;;;;;9.57;4.32;;;-0.20;99.90;;;;;;5055708;28;20032;-77
2021/01/10 02:40:30;;;;;;;9.55;4.93;;;-0.30;99.90;;;;;;5051947;28;20377;-77
2021/01/10 02:43:21;;;;;;;9.18;4.55;;;-0.20;99.90;;;;;;5052743;28;20123;-77
2021/01/10 02:45:50;;;;;;;9.15;4.20;;;-0.20;99.90;;;;;;5069356;28;20041;-77
2021/01/10 02:48:16;;;;;;;9.90;4.80;;;-0.20;99.90;;;;;;5052589;28;20087;-77
2021/01/10 02:50:42;;;;;;;9.68;4.85;;;-0.30;99.90;;;;;;5052207;28;20110;-78
2021/01/10 02:53:08;;;;;;;10.52;5.03;;;-0.20;99.90;;;;;;5052956;28;20056;-77
2021/01/10 02:55:34;;;;;;;9.07;4.63;;;-0.30;99.90;;;;;;5054166;28;20769;-77
2021/01/10 02:58:06;;;;;;;9.32;5.18;;;-0.30;99.90;;;;;;5052558;28;20041;-77
2021/01/10 03:00:32;;;;;;;9.57;4.93;;;-0.20;99.90;;;;;;5036156;28;20163;-78
2021/01/10 03:03:00;;;;;;;7.60;4.40;;;-0.20;99.90;;;;;;5053960;28;20087;-78
2021/01/10 03:05:27;;;;;;;9.25;5.15;;;-0.20;99.90;;;;;;5053980;28;20593;-78
2021/01/10 03:07:55;;;;;;;10.35;4.78;;;-0.20;99.90;;;;;;5053947;28;20029;-78
2021/01/10 03:10:21;;;;;;;8.35;4.95;;;-0.30;99.90;;;;;;5034808;28;20037;-78
2021/01/10 03:12:48;;;;;;;10.15;5.50;;;-0.30;99.90;;;;;;5052375;28;20045;-78
2021/01/10 03:15:14;;;;;;;8.55;4.50;;;-0.20;99.90;;;;;;5036457;28;20565;-77
2021/01/10 03:17:44;;;;;;;9.63;5.28;;;-0.30;99.90;;;;;;5052753;28;20029;-78
2021/01/10 03:20:18;;;;;;;8.77;4.80;;;-0.20;99.90;;;;;;5052069;28;20611;-77
2021/01/10 03:22:45;;;;;;;10.75;4.82;;;-0.30;99.90;;;;;;5052614;28;20033;-77
2021/01/10 03:25:14;;;;;;;10.48;5.25;;;-0.30;99.90;;;;;;5036472;28;20048;-78
2021/01/10 03:27:40;;;;;;;10.05;5.10;;;-0.20;99.90;;;;;;5052325;28;20063;-78
2021/01/10 03:30:08;;;;;;;9.35;4.82;;;-0.20;99.90;;;;;;5051275;28;20445;-77
2021/01/10 03:32:35;;;;;;;11.35;5.45;;;-0.20;99.90;;;;;;5053450;28;20025;-77
2021/01/10 03:35:01;;;;;;;13.35;6.15;;;-0.20;99.90;;;;;;5053554;28;20033;-77
2021/01/10 03:37:27;;;;;;;8.52;4.57;;;-0.20;99.90;;;;;;5052088;28;20090;-77
2021/01/10 03:39:53;;;;;;;9.43;4.50;;;-0.20;99.90;;;;;;5050961;28;20057;-78
2021/01/10 03:42:21;;;;;;;8.75;4.38;;;-0.20;99.90;;;;;;5053557;28;20547;-77
2021/01/10 03:44:47;;;;;;;13.38;5.63;;;-0.20;99.90;;;;;;5053573;28;20045;-77
2021/01/10 03:47:12;;;;;;;12.27;5.38;;;-0.20;99.90;;;;;;5051849;28;20032;-78
2021/01/10 03:49:38;;;;;;;10.40;5.10;;;-0.20;99.90;;;;;;5051992;28;20036;-77
2021/01/10 03:52:04;;;;;;;11.73;5.47;;;-0.20;99.90;;;;;;5054548;28;20029;-78
2021/01/10 03:54:29;;;;;;;10.93;5.35;;;-0.20;99.90;;;;;;5053058;28;20116;-78
2021/01/10 03:56:55;;;;;;;9.90;5.07;;;-0.20;99.90;;;;;;5052199;28;20056;-78
2021/01/10 03:59:21;;;;;;;9.52;5.22;;;-0.20;99.90;;;;;;5035217;28;20530;-77
2021/01/10 04:01:46;;;;;;;10.82;5.20;;;-0.20;99.90;;;;;;5034779;28;20040;-78
2021/01/10 04:04:12;;;;;;;10.05;4.97;;;-0.20;99.90;;;;;;5035201;28;20029;-77
2021/01/10 04:06:38;;;;;;;10.57;5.38;;;-0.20;99.90;;;;;;5051609;28;20033;-78
2021/01/10 04:09:04;;;;;;;12.93;5.80;;;-0.20;99.90;;;;;;5052913;28;20040;-78
2021/01/10 04:11:29;;;;;;;8.82;4.85;;;-0.30;99.90;;;;;;5034502;28;20029;-77
2021/01/10 04:13:55;;;;;;;14.05;6.03;;;-0.20;99.90;;;;;;5053116;28;20044;-77
2021/01/10 04:16:21;;;;;;;12.18;6.00;;;-0.30;99.90;;;;;;5068335;28;20024;-77
2021/01/10 04:18:47;;;;;;;9.10;4.97;;;-0.30;99.90;;;;;;5045828;28;20029;-78
2021/01/10 04:21:12;;;;;;;9.88;5.22;;;-0.30;99.90;;;;;;5071937;28;20029;-78
2021/01/10 04:23:38;;;;;;;12.13;5.10;;;-0.30;99.90;;;;;;5074724;28;20021;-77
2021/01/10 04:26:04;;;;;;;8.43;4.55;;;-0.30;99.90;;;;;;5061220;28;20586;-78
2021/01/10 04:28:30;;;;;;;9.50;5.18;;;-0.30;99.90;;;;;;5074356;28;20082;-77
2021/01/10 04:30:56;;;;;;;10.13;4.95;;;-0.30;99.90;;;;;;5070902;28;20075;-78
2021/01/10 04:33:23;;;;;;;11.40;5.63;;;-0.30;99.90;;;;;;5054891;28;20060;-77
2021/01/10 04:35:49;;;;;;;10.18;5.25;;;-0.30;99.90;;;;;;5054887;28;20032;-78
2021/01/10 04:38:16;;;;;;;8.48;4.75;;;-0.30;99.90;;;;;;5071855;28;20502;-77
2021/01/10 04:40:41;;;;;;;8.85;4.90;;;-0.30;99.90;;;;;;5071395;28;20025;-77
2021/01/10 04:43:07;;;;;;;10.38;5.88;;;-0.30;99.90;;;;;;5054509;28;20060;-77
2021/01/10 04:45:33;;;;;;;8.98;5.18;;;-0.30;99.90;;;;;;5054279;28;20526;-78
2021/01/10 04:48:00;;;;;;;8.57;4.35;;;-0.30;99.90;;;;;;5071887;28;20028;-77
2021/01/10 04:50:28;;;;;;;10.02;5.32;;;-0.30;99.90;;;;;;5053392;28;20061;-78
2021/01/10 04:52:58;;;;;;;10.18;4.70;;;-0.30;99.90;;;;;;5072410;28;20036;-78
2021/01/10 04:55:24;;;;;;;11.13;5.15;;;-0.30;99.90;;;;;;5071092;28;20466;-78
2021/01/10 04:58:04;;;;;;;8.73;4.70;;;-0.30;99.90;;;;;;5070794;28;20131;-78
2021/01/10 05:00:32;;;;;;;9.77;4.90;;;-0.30;99.90;;;;;;5069585;28;20471;-77
2021/01/10 05:03:09;;;;;;;11.30;4.75;;;-0.30;99.90;;;;;;5072260;28;20064;-77
2021/01/10 05:05:36;;;;;;;11.40;5.63;;;-0.30;99.90;;;;;;5070658;28;20033;-77
2021/01/10 05:08:09;;;;;;;10.30;5.30;;;-0.30;99.90;;;;;;5071613;28;20029;-77
2021/01/10 05:10:36;;;;;;;11.57;5.40;;;-0.30;99.90;;;;;;5071154;28;20044;-78
2021/01/10 05:13:02;;;;;;;10.93;5.45;;;-0.30;99.90;;;;;;5070771;28;20036;-77
2021/01/10 05:15:28;;;;;;;10.38;5.03;;;-0.30;99.90;;;;;;5070859;28;20044;-78
2021/01/10 05:17:56;;;;;;;10.25;4.85;;;-0.30;99.90;;;;;;5071660;28;20037;-77
2021/01/10 05:20:29;;;;;;;9.57;5.05;;;-0.30;99.90;;;;;;5070775;28;20048;-77
2021/01/10 05:22:55;;;;;;;9.13;5.38;;;-0.40;99.90;;;;;;5071866;28;20226;-78
2021/01/10 05:25:21;;;;;;;11.65;5.28;;;-0.40;99.90;;;;;;5070151;28;20029;-78
2021/01/10 05:27:48;;;;;;;10.40;5.20;;;-0.40;99.90;;;;;;5070245;28;20574;-78
2021/01/10 05:30:16;;;;;;;10.73;5.55;;;-0.40;99.90;;;;;;5069973;28;20072;-78
2021/01/10 05:33:00;;;;;;;9.85;5.30;;;-0.40;99.90;;;;;;5071405;28;20059;-78
2021/01/10 05:35:26;;;;;;;11.25;5.47;;;-0.50;99.90;;;;;;5071422;28;20028;-78
2021/01/10 05:37:56;;;;;;;11.93;5.85;;;-0.50;99.90;;;;;;5070769;28;20031;-78
2021/01/10 05:40:29;;;;;;;12.32;6.30;;;-0.50;99.90;;;;;;5069192;28;20035;-78
2021/01/10 05:42:59;;;;;;;11.10;5.85;;;-0.50;99.90;;;;;;5058887;28;20105;-78
2021/01/10 05:45:36;;;;;;;9.63;5.20;;;-0.50;99.90;;;;;;5076868;28;20032;-77
2021/01/10 05:48:09;;;;;;;10.88;5.53;;;-0.50;99.90;;;;;;5077251;28;20036;-77
2021/01/10 05:50:52;;;;;;;11.88;5.80;;;-0.50;99.90;;;;;;5076760;28;20044;-78
2021/01/10 05:53:24;;;;;;;14.57;6.32;;;-0.50;99.90;;;;;;5077749;28;20024;-78
2021/01/10 05:55:57;;;;;;;12.43;6.07;;;-0.50;99.90;;;;;;5060316;28;20037;-77
2021/01/10 05:58:24;;;;;;;10.60;5.47;;;-0.50;99.90;;;;;;5075684;28;20024;-78
2021/01/10 06:00:54;;;;;;;11.82;5.80;;;-0.50;99.90;;;;;;5076948;28;20036;-77
2021/01/10 06:03:23;;;;;;;14.95;5.60;;;-0.50;99.90;;;;;;5077387;28;20036;-77
2021/01/10 06:05:57;;;;;;;12.32;5.88;;;-0.60;99.90;;;;;;5056741;28;20090;-77
2021/01/10 06:08:36;;;;;;;11.10;5.63;;;-0.60;99.90;;;;;;5075325;28;20111;-78
2021/01/10 06:11:21;;;;;;;13.07;5.93;;;-0.50;99.90;;;;;;5076930;28;20162;-78
2021/01/10 06:13:59;;;;;;;12.18;5.50;;;-0.50;99.90;;;;;;5081072;28;20031;-78
2021/01/10 06:16:28;;;;;;;10.75;6.32;;;-0.50;99.90;;;;;;5077523;28;20040;-77
2021/01/10 06:18:59;;;;;;;11.95;5.57;;;-0.50;99.90;;;;;;5058528;28;20850;-78
2021/01/10 06:21:30;;;;;;;11.40;6.22;;;-0.60;99.90;;;;;;5059450;28;20146;-78
2021/01/10 06:23:58;;;;;;;14.90;6.45;;;-0.60;99.90;;;;;;5068736;28;20032;-77
2021/01/10 06:26:26;;;;;;;11.73;5.82;;;-0.60;99.90;;;;;;5059178;28;20036;-78
2021/01/10 06:28:54;;;;;;;11.93;6.28;;;-0.60;99.90;;;;;;5075162;28;20407;-77
2021/01/10 06:31:24;;;;;;;11.00;5.90;;;-0.60;99.90;;;;;;5083580;28;20024;-78
2021/01/10 06:33:55;;;;;;;11.50;5.95;;;-0.50;99.90;;;;;;5068217;28;20032;-77
2021/01/10 06:36:22;;;;;;;11.23;5.95;;;-0.50;99.90;;;;;;5077686;28;20115;-78
2021/01/10 06:38:52;;;;;;;11.18;5.35;;;-0.60;99.90;;;;;;5075140;28;20629;-77
2021/01/10 06:41:24;;;;;;;8.65;4.93;;;-0.50;99.90;;;;;;5075614;28;20036;-78
2021/01/10 06:44:01;;;;;;;12.75;6.40;;;-0.50;99.90;;;;;;5077540;28;20099;-78
2021/01/10 06:46:27;;;;;;;12.40;6.28;;;-0.50;99.90;;;;;;5077509;28;20029;-77
2021/01/10 06:48:54;;;;;;;12.13;6.20;;;-0.50;99.90;;;;;;5076293;28;20071;-77
2021/01/10 06:51:25;;;;;;;10.80;5.50;;;-0.50;99.90;;;;;;5075424;28;20036;-77
2021/01/10 06:53:51;;;;;;;11.07;5.10;;;-0.50;99.90;;;;;;5072908;28;20036;-77
2021/01/10 06:56:17;;;;;;;10.80;5.47;;;-0.50;99.90;;;;;;5056717;28;20119;-77
2021/01/10 06:59:05;;;;;;;11.68;5.63;;;-0.50;99.90;;;;;;5071956;28;20451;-78
2021/01/10 07:01:45;;;;;;;11.35;5.07;;;-0.50;99.90;;;;;;5065363;28;20078;-78
2021/01/10 07:04:11;;;;;;;9.48;5.13;;;-0.50;99.90;;;;;;5073834;28;20036;-78
2021/01/10 07:06:44;;;;;;;13.90;5.75;;;-0.50;99.90;;;;;;5055944;28;20063;-77
2021/01/10 07:09:10;;;;;;;13.93;6.55;;;-0.50;99.90;;;;;;5055455;28;20073;-77
2021/01/10 07:11:37;;;;;;;16.17;7.25;;;-0.40;99.90;;;;;;5071934;28;20029;-78
2021/01/10 07:14:06;;;;;;;13.65;6.95;;;-0.50;99.90;;;;;;5039717;28;20044;-78
2021/01/10 07:16:33;;;;;;;13.45;7.13;;;-0.50;99.90;;;;;;5073504;28;20433;-78
2021/01/10 07:19:03;;;;;;;14.90;7.40;;;-0.60;99.90;;;;;;5071878;28;20056;-77
2021/01/10 07:21:39;;;;;;;11.30;6.18;;;-0.60;99.90;;;;;;5072042;28;20025;-78
2021/01/10 07:24:16;;;;;;;12.82;6.25;;;-0.60;99.90;;;;;;5070032;28;20046;-77
2021/01/10 07:27:06;;;;;;;14.02;6.90;;;-0.70;99.90;;;;;;5053100;28;20608;-78
2021/01/10 07:29:45;;;;;;;12.30;6.60;;;-0.70;99.90;;;;;;5060752;28;20036;-78
2021/01/10 07:32:12;;;;;;;17.10;6.55;;;-0.70;99.90;;;;;;5055558;28;20032;-76
2021/01/10 07:34:44;;;;;;;13.70;6.43;;;-0.70;99.90;;;;;;5055183;28;20028;-78
2021/01/10 07:37:11;;;;;;;12.45;6.00;;;-0.70;99.90;;;;;;5071547;28;20047;-78
2021/01/10 07:39:49;;;;;;;11.90;7.25;;;-0.80;99.90;;;;;;5075158;28;20074;-78
2021/01/10 07:42:17;;;;;;;11.30;6.30;;;-0.70;99.90;;;;;;5075471;28;20039;-78
2021/01/10 07:44:56;;;;;;;14.18;6.75;;;-0.80;99.90;;;;;;5075013;28;20610;-78
2021/01/10 07:47:34;;;;;;;13.85;6.43;;;-0.80;99.90;;;;;;5074268;28;20036;-78
2021/01/10 07:50:27;;;;;;;10.90;6.00;;;-0.80;99.90;;;;;;5073262;28;20395;-78
2021/01/10 07:52:56;;;;;;;13.35;6.47;;;-0.70;99.90;;;;;;5072842;28;20044;-78
2021/01/10 07:55:24;;;;;;;12.75;6.85;;;-0.70;99.90;;;;;;5073954;28;20098;-78
2021/01/10 07:57:53;;;;;;;14.73;7.57;;;-0.70;99.90;;;;;;5056159;28;20114;-78
2021/01/10 08:00:33;;;;;;;14.45;6.47;;;-0.60;99.90;;;;;;5070821;28;20032;-78
2021/01/10 08:03:07;;;;;;;14.70;7.38;;;-0.60;99.90;;;;;;5073684;28;20029;-78
2021/01/10 08:05:39;;;;;;;15.90;7.43;;;-0.50;99.90;;;;;;5072495;28;20112;-78
2021/01/10 08:08:12;;;;;;;16.55;6.80;;;-0.40;99.90;;;;;;5073168;28;20040;-78
2021/01/10 08:10:55;;;;;;;14.27;7.30;;;-0.40;99.90;;;;;;5054666;28;20033;-78
2021/01/10 08:13:46;;;;;;;14.93;6.78;;;-0.40;99.90;;;;;;5051631;28;20039;-78
2021/01/10 08:16:14;;;;;;;14.07;6.80;;;-0.40;99.90;;;;;;5035868;28;20029;-78
2021/01/10 08:18:45;;;;;;;17.23;7.63;;;-0.40;99.90;;;;;;5054788;28;20051;-78
2021/01/10 08:21:12;;;;;;;16.08;7.35;;;-0.40;99.90;;;;;;5067764;28;20558;-77
2021/01/10 08:23:39;;;;;;;15.80;7.25;;;-0.40;99.90;;;;;;5072489;28;20438;-78
2021/01/10 08:26:17;;;;;;;17.67;7.97;;;-0.40;99.90;;;;;;5057477;28;20066;-78
2021/01/10 08:28:48;;;;;;;13.75;6.97;;;-0.30;99.90;;;;;;5065221;28;20024;-78
2021/01/10 08:31:16;;;;;;;14.05;6.47;;;-0.30;99.90;;;;;;5065740;28;20028;-78
2021/01/10 08:33:44;;;;;;;12.50;6.07;;;-0.30;99.90;;;;;;5070901;28;20028;-78
2021/01/10 08:36:16;;;;;;;14.25;6.30;;;-0.40;99.90;;;;;;5069808;28;20035;-78
2021/01/10 08:38:52;;;;;;;13.27;6.55;;;-0.30;99.90;;;;;;5069343;28;20517;-78
2021/01/10 08:41:27;;;;;;;11.63;5.78;;;-0.30;99.90;;;;;;5069198;28;20025;-78
2021/01/10 08:43:56;;;;;;;12.18;6.25;;;-0.20;99.90;;;;;;5064569;28;20021;-78
2021/01/10 08:46:24;;;;;;;13.48;6.45;;;-0.20;99.90;;;;;;5070685;28;20033;-78
2021/01/10 08:48:50;;;;;;;13.85;7.00;;;-0.20;99.90;;;;;;5055457;28;20027;-78
2021/01/10 08:51:31;;;;;;;15.25;7.15;;;-0.10;99.90;;;;;;5056957;28;20036;-78
2021/01/10 08:54:13;;;;;;;16.10;6.85;;;-0.10;99.90;;;;;;5064924;28;20743;-78
2021/01/10 08:56:40;;;;;;;11.70;6.32;;;-0.10;99.90;;;;;;5064525;28;20490;-78
2021/01/10 08:59:07;;;;;;;13.40;5.65;;;0.00;99.90;;;;;;5057091;28;20040;-77
2021/01/10 09:01:34;;;;;;;14.63;7.00;;;0.00;99.90;;;;;;5058363;28;20067;-77
2021/01/10 09:03:59;;;;;;;13.63;6.95;;;0.00;99.90;;;;;;5058735;28;20384;-77
2021/01/10 09:06:29;;;;;;;14.93;7.05;;;0.10;99.90;;;;;;5063751;28;20032;-77
2021/01/10 09:09:02;;;;;;;12.18;6.25;;;0.10;99.90;;;;;;5058885;28;20039;-78
2021/01/10 09:11:31;;;;;;;14.50;6.57;;;0.10;99.90;;;;;;5060010;28;20502;-78
2021/01/10 09:14:01;;;;;;;14.23;6.68;;;0.20;99.90;;;;;;5059511;28;20048;-78
2021/01/10 09:16:31;;;;;;;14.98;6.50;;;0.30;99.90;;;;;;5061678;28;20041;-77
2021/01/10 09:18:59;;;;;;;15.00;6.75;;;0.20;99.90;;;;;;5063377;28;20029;-78
2021/01/10 09:21:27;;;;;;;16.10;6.93;;;0.30;99.90;;;;;;5064576;28;20072;-77
2021/01/10 09:23:54;;;;;;;14.88;6.85;;;0.40;99.90;;;;;;5064797;28;20502;-78
2021/01/10 09:26:27;;;;;;;14.18;7.13;;;0.30;99.90;;;;;;5042357;28;20041;-78
2021/01/10 09:28:53;;;;;;;16.17;7.55;;;0.30;99.90;;;;;;5056317;28;20036;-78
2021/01/10 09:31:19;;;;;;;14.48;7.22;;;0.40;99.90;;;;;;5056598;28;20636;-78
2021/01/10 09:33:54;;;;;;;15.40;7.30;;;0.40;99.90;;;;;;5044958;28;20036;-77
2021/01/10 09:36:20;;;;;;;14.93;7.72;;;0.40;99.90;;;;;;5063769;28;20033;-78
2021/01/10 09:38:55;;;;;;;15.02;6.43;;;0.50;99.90;;;;;;5060443;28;20032;-78
2021/01/10 09:41:21;;;;;;;14.07;6.55;;;0.50;99.90;;;;;;5051781;28;20297;-77
2021/01/10 09:44:00;;;;;;;13.27;6.68;;;0.40;99.90;;;;;;5047373;28;20013;-78
2021/01/10 09:47:05;;;;;;;15.90;7.20;;;0.50;99.90;;;;;;5062199;28;20055;-76
2021/01/10 09:49:32;;;;;;;15.90;8.20;;;0.60;99.90;;;;;;5030377;28;20041;-77
2021/01/10 09:52:12;;;;;;;21.15;8.20;;;0.60;99.90;;;;;;4998392;28;20079;-78
2021/01/10 09:54:38;;;;;;;14.57;6.72;;;0.60;99.90;;;;;;5056828;28;20047;-78
2021/01/10 09:57:24;;;;;;;15.73;7.13;;;0.70;99.90;;;;;;5054708;28;20040;-79
2021/01/10 09:59:55;;;;;;;16.38;6.95;;;0.60;99.90;;;;;;5062144;28;20550;-77
2021/01/10 10:02:22;;;;;;;18.60;9.20;;;0.60;99.90;;;;;;5060954;28;20029;-78
2021/01/10 10:04:51;;;;;;;20.23;9.65;;;0.60;99.90;;;;;;5063997;28;20544;-77
2021/01/10 10:07:30;;;;;;;15.38;6.88;;;0.50;99.90;;;;;;5055989;28;20029;-76
2021/01/10 10:09:56;;;;;;;14.25;7.40;;;0.50;99.90;;;;;;5055958;28;20052;-76
2021/01/10 10:12:24;;;;;;;16.20;8.25;;;0.50;99.90;;;;;;5052430;28;20051;-76
2021/01/10 10:14:59;;;;;;;14.35;7.00;;;0.50;99.90;;;;;;5059079;28;20493;-76
2021/01/10 10:17:37;;;;;;;15.45;7.43;;;0.50;99.90;;;;;;5057919;28;20045;-75
2021/01/10 10:20:05;;;;;;;22.23;9.35;;;0.50;99.90;;;;;;5055116;28;20064;-76
2021/01/10 10:22:33;;;;;;;13.85;6.57;;;0.50;99.90;;;;;;5059477;28;20020;-75
2021/01/10 10:25:02;;;;;;;17.80;7.20;;;0.50;99.90;;;;;;5053291;28;20025;-76
2021/01/10 10:27:31;;;;;;;14.20;7.63;;;0.50;99.90;;;;;;5051060;28;20061;-75
2021/01/10 10:29:57;;;;;;;14.73;7.28;;;0.50;99.90;;;;;;5059234;28;20035;-76
2021/01/10 10:32:23;;;;;;;14.45;6.50;;;0.50;99.90;;;;;;5057648;28;20514;-75
2021/01/10 10:34:50;;;;;;;14.82;6.90;;;0.60;99.90;;;;;;5068522;28;20064;-76
2021/01/10 10:37:17;;;;;;;11.70;6.45;;;0.70;99.90;;;;;;5045871;28;20063;-76
2021/01/10 10:39:44;;;;;;;15.75;7.20;;;0.70;99.90;;;;;;5059187;28;20483;-76
2021/01/10 10:42:17;;;;;;;13.32;6.72;;;0.60;99.90;;;;;;5057938;28;20040;-75
2021/01/10 10:44:44;;;;;;;15.55;7.05;;;0.70;99.90;;;;;;5061203;28;20024;-75
2021/01/10 10:47:13;;;;;;;13.70;6.82;;;0.70;99.90;;;;;;5058112;28;20037;-77
2021/01/10 10:49:40;;;;;;;20.83;8.82;;;0.70;99.90;;;;;;5063106;28;20039;-77
2021/01/10 10:52:07;;;;;;;16.25;7.80;;;0.70;99.90;;;;;;5059738;28;20033;-76
2021/01/10 10:54:33;;;;;;;17.48;7.80;;;0.70;99.90;;;;;;5039242;28;20100;-77
2021/01/10 10:56:59;;;;;;;18.33;9.98;;;0.70;99.90;;;;;;5059679;28;20037;-77
2021/01/10 10:59:25;;;;;;;15.52;7.80;;;0.70;99.90;;;;;;5062268;28;20064;-77
2021/01/10 11:01:51;;;;;;;14.52;7.28;;;0.60;99.90;;;;;;5066379;28;20024;-77
2021/01/10 11:04:17;;;;;;;13.43;6.35;;;0.60;99.90;;;;;;5063114;28;20021;-77
2021/01/10 11:06:42;;;;;;;15.52;7.05;;;0.60;99.90;;;;;;5060493;28;20103;-76
2021/01/10 11:09:10;;;;;;;14.93;7.15;;;0.60;99.90;;;;;;5065598;28;20029;-77
2021/01/10 11:11:43;;;;;;;18.63;8.30;;;0.60;99.90;;;;;;5074193;28;20043;-77
2021/01/10 11:14:10;;;;;;;14.75;6.38;;;0.60;99.90;;;;;;5075087;28;20552;-77
2021/01/10 11:16:37;;;;;;;13.73;6.93;;;0.70;99.90;;;;;;5080218;28;20062;-76
2021/01/10 11:19:05;;;;;;;16.65;7.75;;;0.70;99.90;;;;;;5064877;28;20025;-77
2021/01/10 11:21:33;;;;;;;17.77;7.63;;;0.70;99.90;;;;;;5039650;28;20112;-77
2021/01/10 11:23:59;;;;;;;14.07;6.20;;;0.80;99.90;;;;;;5066619;28;20033;-76
2021/01/10 11:26:25;;;;;;;10.00;4.80;;;0.80;99.90;;;;;;5073231;28;20037;-76
2021/01/10 11:28:52;;;;;;;13.43;6.28;;;0.80;99.90;;;;;;5046897;28;20179;-76
2021/01/10 11:31:19;;;;;;;11.57;5.63;;;0.70;99.90;;;;;;5064594;28;20047;-76
2021/01/10 11:33:45;;;;;;;12.65;6.07;;;0.80;99.90;;;;;;5066454;28;20498;-76
2021/01/10 11:36:11;;;;;;;15.48;6.20;;;0.80;99.90;;;;;;5062929;28;20094;-77
2021/01/10 11:38:37;;;;;;;12.38;5.82;;;0.90;99.90;;;;;;5062541;28;20032;-76
2021/01/10 11:41:09;;;;;;;11.95;5.90;;;0.90;99.90;;;;;;5067035;28;20154;-76
2021/01/10 11:43:35;;;;;;;13.23;6.50;;;0.90;99.90;;;;;;5068875;28;20064;-77
2021/01/10 11:46:02;;;;;;;14.73;6.95;;;0.90;99.90;;;;;;5062288;28;20392;-76
2021/01/10 11:48:27;;;;;;;16.02;6.80;;;0.90;99.90;;;;;;5070310;28;20033;-76
2021/01/10 11:50:53;;;;;;;12.07;5.30;;;0.80;99.90;;;;;;5072700;28;20035;-76
2021/01/10 11:53:19;;;;;;;11.93;5.82;;;0.80;99.90;;;;;;5050501;28;20112;-77
2021/01/10 11:55:45;;;;;;;11.30;6.20;;;0.70;99.90;;;;;;5045501;28;20040;-76
2021/01/10 11:58:11;;;;;;;12.10;6.55;;;0.80;99.90;;;;;;5060510;28;20028;-76
2021/01/10 12:00:38;;;;;;;17.58;9.43;;;0.70;99.90;;;;;;5058577;28;20029;-77
2021/01/10 12:03:04;;;;;;;13.48;7.03;;;0.70;99.90;;;;;;5057260;28;20033;-77
2021/01/10 12:05:30;;;;;;;14.48;6.47;;;0.70;99.90;;;;;;5063549;28;20090;-76
2021/01/10 12:07:55;;;;;;;13.70;6.78;;;0.70;99.90;;;;;;5050270;28;20719;-76
2021/01/10 12:10:21;;;;;;;15.80;6.53;;;0.70;99.90;;;;;;5049900;28;20076;-76
2021/01/10 12:12:47;;;;;;;12.65;6.03;;;0.70;99.90;;;;;;5051283;28;20021;-76
2021/01/10 12:15:13;;;;;;;13.73;6.95;;;0.60;99.90;;;;;;5052032;28;20033;-76
2021/01/10 12:17:38;;;;;;;12.32;6.18;;;0.60;99.90;;;;;;5051056;28;20033;-76
2021/01/10 12:20:05;;;;;;;15.77;6.63;;;0.50;99.90;;;;;;5061072;28;20025;-75
2021/01/10 12:22:31;;;;;;;15.18;7.45;;;0.50;99.90;;;;;;5063222;28;20025;-76
2021/01/10 12:24:57;;;;;;;14.55;7.95;;;0.50;99.90;;;;;;5070227;28;20029;-75
2021/01/10 12:27:22;;;;;;;15.15;6.63;;;0.60;99.90;;;;;;5080466;28;20036;-77
2021/01/10 12:29:48;;;;;;;16.23;6.65;;;0.50;99.90;;;;;;5064628;28;20117;-76
2021/01/10 12:32:13;;;;;;;21.10;10.40;;;0.50;99.90;;;;;;5050100;28;20020;-77
2021/01/10 12:34:39;;;;;;;15.60;7.53;;;0.50;99.90;;;;;;5063227;28;20044;-76
2021/01/10 12:37:05;;;;;;;19.27;10.25;;;0.50;99.90;;;;;;5041985;28;20028;-76
2021/01/10 12:39:30;;;;;;;20.65;9.55;;;0.60;99.90;;;;;;5066841;28;20055;-77
2021/01/10 12:41:56;;;;;;;15.75;8.60;;;0.60;99.90;;;;;;5068000;28;20070;-77
2021/01/10 12:44:22;;;;;;;16.88;7.15;;;0.60;99.90;;;;;;5056840;28;20017;-76
2021/01/10 12:46:48;;;;;;;13.52;6.75;;;0.50;99.90;;;;;;5056713;28;20123;-76
2021/01/10 12:49:13;;;;;;;15.10;7.22;;;0.40;99.90;;;;;;5063183;28;20028;-76
2021/01/10 12:51:39;;;;;;;14.18;7.53;;;0.40;99.90;;;;;;5059022;28;20396;-75
2021/01/10 12:54:06;;;;;;;11.57;6.50;;;0.30;99.90;;;;;;5061129;28;20406;-76